Aérodrome :
LOGIN :

S'inscrire | Disclaimer

   EN    FR    IT 

 










Légende :    VFR   VFR Marginal   IFR   IFR Intensif   IFR Très Intensif
Visi : 
Plafond : 
>= 8 km
>= 3000ft
5 à 8 km
1000 à 3000 ft
1500m à 5 km
500 à 1000 ft
800 à 1500m
200 à 500 ft
< 800m
< 200 ft
Symboles :   Orages  Brouillard  Fortes neiges  Fortes précipitations  Vent > 20 kt
SIGMETs :   Divers  Orages  Givrage  Turbulence  Onde Orograph.  Cendres Volcan.






- Altitude de l'aérodrome : 231 ft
- Code IATA : WTN


EGXW - RAF Waddington

DERNIER METAR :
  • 111250Z 10008KT CAVOK 30/17 Q1015 NOSIG RMK BLU BLU

METARs EXPIRÉS :
  • 111150Z 10007KT CAVOK 28/18 Q1016 NOSIG RMK BLU BLU
  • 111050Z 06006KT CAVOK 26/19 Q1016 NOSIG RMK BLU BLU

TAF TAF EGXW
Valide du 11 à 12h jusqu'au 12 à 06h UTC


111058Z 1112/1206 10007KT CAVOK
PROB30
TEMPO 1113/1121 BKN050CB
PROB30 1123/1202 4000 BR
PROB30 1202/1206 0500 FG OVC001



MET'MAP, la Météo Aéronautique d'un coup d'oeil ! - Copyright ORBIFLY Décembre 2007 - Disclaimer

ORBIFLY MET'MAP TEAM :

Programmation & Développement : Alexandra Zaïnal
Sur une idée originale de : Baudouin d'Aumeries
Assistance à la programmation : Marc-Olivier Méhu
Soutien technique & logistique : Manuel Goepfert

Contact : metmap@orbifly.com




SOURCES & CREDITS :

   NOAA